Time;durP1;ratioP1;P1;durP2;ratioP2;P2;SDS_P1;SDS_P2;PMS_P1;PMS_P2;Temp;Humidity;BMP_temperature;BMP_pressure;BME280_temperature;BME280_humidity;BME280_pressure;Samples;Min_cycle;Max_cycle;Signal;HPM_P1;HPM_P2
2022/02/15 00:01:56;;;;;;;10.80;2.33;;;8.70;99.90;;;;;;5017403;28;20025;-76
2022/02/15 00:04:22;;;;;;;10.60;2.83;;;8.70;99.90;;;;;;5034728;28;20079;-76
2022/02/15 00:06:48;;;;;;;6.60;2.63;;;8.70;99.90;;;;;;5034667;28;20033;-76
2022/02/15 00:09:16;;;;;;;10.77;3.22;;;8.70;99.90;;;;;;5034800;28;20068;-74
2022/02/15 00:11:42;;;;;;;9.90;3.20;;;8.70;99.90;;;;;;5035102;28;20052;-74
2022/02/15 00:14:10;;;;;;;8.97;2.70;;;8.70;99.90;;;;;;5033480;28;20029;-74
2022/02/15 00:16:36;;;;;;;9.77;2.80;;;8.70;99.90;;;;;;5035093;28;20497;-74
2022/02/15 00:19:02;;;;;;;10.60;2.53;;;8.70;99.90;;;;;;5017187;28;20405;-74
2022/02/15 00:21:28;;;;;;;9.27;2.50;;;8.70;99.90;;;;;;5034642;28;20108;-74
2022/02/15 00:23:54;;;;;;;9.43;2.70;;;8.70;99.90;;;;;;5016520;28;20053;-74
2022/02/15 00:26:20;;;;;;;10.50;2.40;;;8.70;99.90;;;;;;5048223;22;20076;-80
2022/02/15 00:28:46;;;;;;;9.53;2.40;;;8.70;99.90;;;;;;5014512;28;20041;-80
2022/02/15 00:31:11;;;;;;;8.37;2.37;;;8.60;99.90;;;;;;5014778;28;20022;-80
2022/02/15 00:33:37;;;;;;;11.30;2.40;;;8.60;99.90;;;;;;5014633;28;20454;-80
2022/02/15 00:36:03;;;;;;;7.93;2.50;;;8.50;99.90;;;;;;5014581;28;20072;-80
2022/02/15 00:38:29;;;;;;;9.47;2.50;;;8.50;99.90;;;;;;5014409;28;20034;-80
2022/02/15 00:40:54;;;;;;;13.50;3.10;;;8.50;99.90;;;;;;5014666;28;20117;-80
2022/02/15 00:43:20;;;;;;;7.00;2.53;;;8.50;99.90;;;;;;5014202;28;20026;-80
2022/02/15 00:45:46;;;;;;;10.93;2.87;;;8.50;99.90;;;;;;5014539;28;20022;-80
2022/02/15 00:48:11;;;;;;;8.00;2.70;;;8.60;99.90;;;;;;5014361;28;20053;-80
2022/02/15 00:50:37;;;;;;;9.23;2.77;;;8.60;99.90;;;;;;5014319;28;20057;-80
2022/02/15 00:53:03;;;;;;;7.60;2.20;;;8.50;99.90;;;;;;5013974;28;20117;-80
2022/02/15 00:55:29;;;;;;;7.87;3.20;;;8.50;99.90;;;;;;4996421;28;20026;-80
2022/02/15 00:57:55;;;;;;;7.90;2.30;;;8.50;99.90;;;;;;5014268;28;20030;-80
2022/02/15 01:00:22;;;;;;;7.90;2.30;;;8.50;99.90;;;;;;5014242;28;20044;-80
2022/02/15 01:02:48;;;;;;;10.97;2.70;;;8.60;99.90;;;;;;4996735;28;20841;-80
2022/02/15 01:05:16;;;;;;;8.10;2.53;;;8.60;99.90;;;;;;4996299;28;20494;-80
2022/02/15 01:07:41;;;;;;;11.13;2.53;;;8.50;99.90;;;;;;4996370;28;20044;-80
2022/02/15 01:10:10;;;;;;;9.70;2.53;;;8.50;99.90;;;;;;4996368;28;20532;-80
2022/02/15 01:12:36;;;;;;;10.63;2.60;;;8.60;99.90;;;;;;5014073;28;20032;-80
2022/02/15 01:15:03;;;;;;;10.20;2.40;;;8.60;99.90;;;;;;5013772;28;20029;-80
2022/02/15 01:17:29;;;;;;;7.70;2.70;;;8.60;99.90;;;;;;5013820;28;20444;-80
2022/02/15 01:19:55;;;;;;;6.53;2.00;;;8.50;99.90;;;;;;4996212;28;20117;-80
2022/02/15 01:22:20;;;;;;;7.07;2.47;;;8.50;99.90;;;;;;5013903;28;20168;-79
2022/02/15 01:24:46;;;;;;;6.63;2.47;;;8.50;99.90;;;;;;5013662;28;20029;-80
2022/02/15 01:27:12;;;;;;;7.97;2.60;;;8.50;99.90;;;;;;4995843;28;20490;-80
2022/02/15 01:29:38;;;;;;;10.20;2.80;;;8.60;99.90;;;;;;4996131;28;20037;-80
2022/02/15 01:32:05;;;;;;;8.87;2.70;;;8.50;99.90;;;;;;4996082;28;20489;-80
2022/02/15 01:34:31;;;;;;;7.57;2.50;;;8.60;99.90;;;;;;5013356;28;20030;-80
2022/02/15 01:36:57;;;;;;;11.23;3.60;;;8.60;99.90;;;;;;4995826;28;20042;-80
2022/02/15 01:39:26;;;;;;;8.37;3.00;;;8.50;99.90;;;;;;4996060;28;20029;-80
2022/02/15 01:41:53;;;;;;;10.60;3.30;;;8.50;99.90;;;;;;4995845;28;20026;-80
2022/02/15 01:44:19;;;;;;;11.80;3.70;;;8.60;99.90;;;;;;4995614;28;20057;-80
2022/02/15 01:46:45;;;;;;;8.53;2.97;;;8.60;99.90;;;;;;4995791;28;20529;-80
2022/02/15 01:49:11;;;;;;;13.23;3.23;;;8.60;99.90;;;;;;5013288;28;20025;-80
2022/02/15 01:51:37;;;;;;;12.07;3.80;;;8.60;99.90;;;;;;4995751;28;20088;-80
2022/02/15 01:54:03;;;;;;;11.77;4.17;;;8.60;99.90;;;;;;4995403;28;20147;-80
2022/02/15 01:56:29;;;;;;;11.20;3.73;;;8.70;99.90;;;;;;4995566;28;20037;-80
2022/02/15 01:58:58;;;;;;;14.27;4.97;;;8.60;99.90;;;;;;4995755;28;20038;-80
2022/02/15 02:01:25;;;;;;;17.27;5.90;;;8.60;99.90;;;;;;4995504;28;20034;-80
2022/02/15 02:04:05;;;;;;;11.17;4.83;;;8.70;99.90;;;;;;4995295;28;20025;-80
2022/02/15 02:06:31;;;;;;;19.27;6.20;;;8.60;99.90;;;;;;4995466;28;20116;-80
2022/02/15 02:09:00;;;;;;;12.20;5.50;;;8.50;99.90;;;;;;4995483;28;20512;-80
2022/02/15 02:11:26;;;;;;;15.23;5.97;;;8.50;99.90;;;;;;4995413;28;20037;-80
2022/02/15 02:13:58;;;;;;;15.60;5.27;;;8.50;99.90;;;;;;4995043;28;20034;-80
2022/02/15 02:16:35;;;;;;;15.23;5.83;;;8.50;99.90;;;;;;4995363;28;20056;-80
2022/02/15 02:19:07;;;;;;;15.03;6.53;;;8.50;99.90;;;;;;4994456;28;20184;-80
2022/02/15 02:21:38;;;;;;;12.30;6.53;;;8.50;99.90;;;;;;4995189;28;20057;-80
2022/02/15 02:24:07;;;;;;;16.23;6.90;;;8.60;99.90;;;;;;5012529;28;20026;-80
2022/02/15 02:26:35;;;;;;;13.00;6.60;;;8.60;99.90;;;;;;5012453;28;20044;-80
2022/02/15 02:29:01;;;;;;;14.27;6.40;;;8.60;99.90;;;;;;4994994;28;20038;-80
2022/02/15 02:31:32;;;;;;;12.97;5.87;;;8.60;99.90;;;;;;4995003;28;20029;-80
2022/02/15 02:34:04;;;;;;;14.87;6.40;;;8.50;99.90;;;;;;5012206;28;20029;-80
2022/02/15 02:36:30;;;;;;;13.37;6.37;;;8.50;99.90;;;;;;4994765;28;20037;-80
2022/02/15 02:38:55;;;;;;;11.60;5.80;;;8.50;99.90;;;;;;5012450;28;20037;-80
2022/02/15 02:41:21;;;;;;;11.30;5.33;;;8.40;99.90;;;;;;4994634;28;20038;-80
2022/02/15 02:43:47;;;;;;;13.30;5.93;;;8.40;99.90;;;;;;4994664;28;20079;-80
2022/02/15 02:46:14;;;;;;;11.30;4.93;;;8.40;99.90;;;;;;4994632;28;20030;-80
2022/02/15 02:48:43;;;;;;;10.77;5.00;;;8.40;99.90;;;;;;5012213;28;20032;-80
2022/02/15 02:51:09;;;;;;;;;;;8.30;99.90;;;;;;4995155;28;20551;-80
2022/02/15 02:53:35;;;;;;;11.30;4.23;;;8.30;99.90;;;;;;5011918;28;19932;-80
2022/02/15 02:56:00;;;;;;;15.90;5.00;;;8.40;99.90;;;;;;4994343;28;20450;-80
2022/02/15 02:58:27;;;;;;;12.30;4.60;;;8.50;99.90;;;;;;4994699;28;20037;-80
2022/02/15 03:00:53;;;;;;;12.17;5.00;;;8.30;99.90;;;;;;5012045;28;20030;-80
2022/02/15 03:03:47;;;;;;;10.57;4.63;;;8.30;99.90;;;;;;5005299;28;20042;-80
2022/02/15 03:06:13;;;;;;;12.17;4.90;;;8.30;99.90;;;;;;4978056;28;20032;-80
2022/02/15 03:08:40;;;;;;;14.20;5.80;;;8.30;99.90;;;;;;4994350;28;20037;-80
2022/02/15 03:11:06;;;;;;;12.47;4.60;;;8.30;99.90;;;;;;5012102;28;20029;-80
2022/02/15 03:13:35;;;;;;;11.50;5.40;;;8.30;99.90;;;;;;4994130;28;20034;-79
2022/02/15 03:16:04;;;;;;;12.73;6.22;;;8.40;99.90;;;;;;4993851;28;20508;-80
2022/02/15 03:18:30;;;;;;;13.07;6.77;;;8.30;99.90;;;;;;4994146;28;20030;-80
2022/02/15 03:21:02;;;;;;;10.77;5.70;;;8.30;99.90;;;;;;4994524;28;20057;-80
2022/02/15 03:23:28;;;;;;;15.20;6.13;;;8.30;99.90;;;;;;4993883;28;20120;-80
2022/02/15 03:25:54;;;;;;;13.43;5.87;;;8.20;99.90;;;;;;4993868;28;20032;-80
2022/02/15 03:28:23;;;;;;;13.93;6.13;;;8.30;99.90;;;;;;4994049;28;20048;-80
2022/02/15 03:30:48;;;;;;;16.40;6.23;;;8.20;99.90;;;;;;4993093;28;20037;-80
2022/02/15 03:33:14;;;;;;;14.40;6.57;;;8.20;99.90;;;;;;4993833;28;20030;-80
2022/02/15 03:35:42;;;;;;;12.97;6.50;;;8.20;99.90;;;;;;4993766;28;20076;-80
2022/02/15 03:38:10;;;;;;;15.77;6.10;;;8.20;99.90;;;;;;4993903;28;20032;-80
2022/02/15 03:43:28;;;;;;;14.67;6.53;;;8.20;99.90;;;;;;4993651;28;20030;-80
2022/02/15 03:45:56;;;;;;;13.00;5.93;;;8.20;99.90;;;;;;4993617;28;20026;-80
2022/02/15 03:48:27;;;;;;;10.93;6.33;;;8.20;99.90;;;;;;4993784;28;20247;-80
2022/02/15 03:50:53;;;;;;;11.87;6.27;;;8.20;99.90;;;;;;4993849;28;20057;-80
2022/02/15 03:53:19;;;;;;;15.10;6.90;;;8.20;99.90;;;;;;4993525;28;20026;-80
2022/02/15 03:55:48;;;;;;;11.30;6.10;;;8.20;99.90;;;;;;4993555;28;20080;-80
2022/02/15 03:58:14;;;;;;;14.33;7.17;;;8.20;99.90;;;;;;4993588;28;20025;-80
2022/02/15 04:00:41;;;;;;;12.97;6.60;;;8.20;99.90;;;;;;4993718;28;20026;-80
2022/02/15 04:03:22;;;;;;;12.73;7.00;;;8.20;99.90;;;;;;4993423;28;20034;-80
2022/02/15 04:05:48;;;;;;;15.93;7.03;;;8.10;99.90;;;;;;4993650;28;20029;-80
2022/02/15 04:08:15;;;;;;;18.23;6.80;;;8.10;99.90;;;;;;4993536;28;20030;-80
2022/02/15 04:10:41;;;;;;;12.90;6.57;;;8.10;99.90;;;;;;4977606;28;20032;-80
2022/02/15 04:13:09;;;;;;;14.07;7.03;;;8.10;99.90;;;;;;4993501;28;20441;-80
2022/02/15 04:15:35;;;;;;;13.37;7.30;;;8.10;99.90;;;;;;4993425;28;20026;-80
2022/02/15 04:18:01;;;;;;;14.30;7.10;;;8.10;99.90;;;;;;4993453;28;20549;-80
2022/02/15 04:20:27;;;;;;;14.87;7.60;;;8.10;99.90;;;;;;4993543;28;20038;-80
2022/02/15 04:22:53;;;;;;;18.67;7.70;;;8.20;99.90;;;;;;4993546;28;20112;-80
2022/02/15 04:25:19;;;;;;;16.20;7.87;;;8.20;99.90;;;;;;4993090;28;20030;-80
2022/02/15 04:27:46;;;;;;;17.53;7.60;;;8.20;99.90;;;;;;4993363;28;20034;-80
2022/02/15 04:30:14;;;;;;;19.73;7.43;;;8.20;99.90;;;;;;4993414;28;20033;-80
2022/02/15 04:32:43;;;;;;;17.10;8.57;;;8.10;99.90;;;;;;4993482;28;20145;-80
2022/02/15 04:35:09;;;;;;;15.80;8.30;;;8.10;99.90;;;;;;4993216;28;20116;-80
2022/02/15 04:37:36;;;;;;;19.47;8.47;;;8.10;99.90;;;;;;4993171;28;20033;-80
2022/02/15 04:40:04;;;;;;;15.90;8.37;;;8.10;99.90;;;;;;4993278;28;20030;-80
2022/02/15 04:42:30;;;;;;;18.17;10.20;;;8.10;99.90;;;;;;4979393;28;20029;-80
2022/02/15 04:44:57;;;;;;;16.73;8.50;;;8.10;99.90;;;;;;4996677;28;20454;-80
2022/02/15 04:47:36;;;;;;;18.10;9.13;;;8.10;99.90;;;;;;4996768;28;20037;-80
2022/02/15 04:50:03;;;;;;;17.83;9.53;;;8.10;99.90;;;;;;4996801;28;20625;-80
2022/02/15 04:52:30;;;;;;;16.40;8.90;;;8.20;99.90;;;;;;4996757;28;20103;-81
2022/02/15 04:54:56;;;;;;;16.57;8.80;;;8.20;99.90;;;;;;4996519;28;20026;-81
2022/02/15 04:57:22;;;;;;;21.90;9.87;;;8.20;99.90;;;;;;4996554;28;20040;-81
2022/02/15 04:59:48;;;;;;;20.83;9.50;;;8.20;99.90;;;;;;4996679;28;20117;-81
2022/02/15 05:02:22;;;;;;;17.43;9.67;;;8.10;99.90;;;;;;4996714;28;20100;-80
2022/02/15 05:04:48;;;;;;;16.33;9.07;;;8.20;99.90;;;;;;4996337;28;20065;-80
2022/02/15 05:07:22;;;;;;;18.57;9.17;;;8.20;99.90;;;;;;4996508;28;20104;-80
2022/02/15 05:09:49;;;;;;;20.53;9.03;;;8.20;99.90;;;;;;4996634;28;20030;-80
2022/02/15 05:12:18;;;;;;;19.17;11.23;;;8.10;99.90;;;;;;4996526;28;20026;-80
2022/02/15 05:14:45;;;;;;;23.17;10.43;;;8.10;99.90;;;;;;4996227;28;20068;-80
2022/02/15 05:17:15;;;;;;;16.53;10.03;;;8.10;99.90;;;;;;4996246;28;20033;-80
2022/02/15 05:19:45;;;;;;;18.70;9.97;;;8.10;99.90;;;;;;4996301;28;20030;-80
2022/02/15 05:22:14;;;;;;;18.63;10.30;;;8.10;99.90;;;;;;4996263;28;20026;-80
2022/02/15 05:24:45;;;;;;;19.90;10.27;;;8.10;99.90;;;;;;4996035;28;20116;-81
2022/02/15 05:27:12;;;;;;;18.10;9.70;;;8.10;99.90;;;;;;4996007;28;20046;-81
2022/02/15 05:29:46;;;;;;;14.67;8.60;;;8.10;99.90;;;;;;4996187;28;20026;-80
2022/02/15 05:32:35;;;;;;;15.38;8.48;;;8.20;99.90;;;;;;5013669;28;20034;-80
2022/02/15 05:35:07;;;;;;;14.97;8.03;;;8.10;99.90;;;;;;4996110;28;20502;-80
2022/02/15 05:37:37;;;;;;;17.67;8.90;;;8.10;99.90;;;;;;5013486;28;20032;-80
2022/02/15 05:40:05;;;;;;;16.90;8.40;;;8.20;99.90;;;;;;4979905;28;20026;-81
2022/02/15 05:42:47;;;;;;;19.13;10.10;;;8.10;99.90;;;;;;4996148;28;20034;-80
2022/02/15 05:45:15;;;;;;;19.20;10.47;;;8.10;99.90;;;;;;4995861;28;20457;-81
2022/02/15 05:47:59;;;;;;;23.37;11.77;;;8.10;99.90;;;;;;4995901;28;20124;-81
2022/02/15 05:53:13;;;;;;;20.90;11.10;;;8.00;99.90;;;;;;4987815;28;20121;-85
2022/02/15 05:55:39;;;;;;;19.30;10.40;;;8.00;99.90;;;;;;4995195;28;20121;-82
2022/02/15 05:58:05;;;;;;;18.47;9.27;;;8.10;99.90;;;;;;4989447;28;20034;-80
2022/02/15 06:00:33;;;;;;;23.40;9.50;;;8.10;99.90;;;;;;4991727;28;20026;-81
2022/02/15 06:02:59;;;;;;;19.17;9.73;;;8.00;99.90;;;;;;5011623;28;20034;-80
2022/02/15 06:05:34;;;;;;;16.53;8.60;;;8.10;99.90;;;;;;5009317;28;20494;-81
2022/02/15 06:08:01;;;;;;;16.47;8.40;;;8.00;99.90;;;;;;5009678;28;20034;-81
2022/02/15 06:10:31;;;;;;;17.90;8.27;;;8.00;99.90;;;;;;5009546;28;20061;-81
2022/02/15 06:13:16;;;;;;;14.33;7.50;;;8.00;99.90;;;;;;5011776;28;20026;-80
2022/02/15 06:15:42;;;;;;;;;;;8.00;99.90;;;;;;5010408;28;20121;-79
2022/02/15 06:18:12;;;;;;;14.77;7.63;;;8.00;99.90;;;;;;5010109;28;19923;-81
2022/02/15 06:20:46;;;;;;;12.53;6.93;;;8.00;99.90;;;;;;5010326;28;20545;-82
2022/02/15 06:23:17;;;;;;;12.97;7.77;;;8.00;99.90;;;;;;4993367;28;20041;-81
2022/02/15 06:25:44;;;;;;;12.93;7.17;;;8.00;99.90;;;;;;5009086;28;20136;-81
2022/02/15 06:28:11;;;;;;;14.30;7.20;;;8.00;99.90;;;;;;5000514;28;20497;-81
2022/02/15 06:30:59;;;;;;;12.90;6.80;;;8.00;99.90;;;;;;4976999;28;20030;-80
2022/02/15 06:33:34;;;;;;;13.20;7.03;;;8.10;99.90;;;;;;4974471;28;20030;-80
2022/02/15 06:36:01;;;;;;;11.95;5.80;;;8.10;99.90;;;;;;4973062;28;20544;-80
2022/02/15 06:38:28;;;;;;;15.63;6.87;;;8.10;99.90;;;;;;4989527;28;20035;-80
2022/02/15 06:41:13;;;;;;;14.53;6.77;;;8.10;99.90;;;;;;4973373;28;20249;-80
2022/02/15 06:44:02;;;;;;;11.50;5.95;;;8.10;99.90;;;;;;4972526;28;20030;-80
2022/02/15 06:46:40;;;;;;;15.03;7.20;;;8.10;99.90;;;;;;4973171;28;20038;-81
2022/02/15 06:49:14;;;;;;;15.43;8.53;;;8.10;99.90;;;;;;4958050;28;20442;-81
2022/02/15 06:51:43;;;;;;;16.07;8.80;;;8.10;99.90;;;;;;4973546;28;20426;-81
2022/02/15 06:54:11;;;;;;;20.08;9.32;;;8.10;99.90;;;;;;4973278;28;20035;-81
2022/02/15 06:56:51;;;;;;;18.70;9.38;;;8.10;99.90;;;;;;4972748;28;20352;-81
2022/02/15 06:59:28;;;;;;;20.23;9.97;;;8.10;99.90;;;;;;4988314;28;20061;-81
2022/02/15 07:01:54;;;;;;;17.30;9.83;;;8.00;99.90;;;;;;4956686;28;20030;-80
2022/02/15 07:04:20;;;;;;;15.00;9.10;;;8.00;99.90;;;;;;4972403;28;20026;-81
2022/02/15 07:06:51;;;;;;;13.60;8.40;;;8.10;99.90;;;;;;4973011;28;20034;-80
2022/02/15 07:09:17;;;;;;;16.37;8.90;;;8.10;99.90;;;;;;4972649;28;20398;-80
2022/02/15 07:12:07;;;;;;;16.65;8.63;;;8.00;99.90;;;;;;4984522;28;20046;-80
2022/02/15 07:14:44;;;;;;;17.43;8.80;;;8.10;99.90;;;;;;4971908;28;20030;-80
2022/02/15 07:17:13;;;;;;;20.53;10.43;;;8.10;99.90;;;;;;4972337;28;20124;-81
2022/02/15 07:19:39;;;;;;;22.47;11.07;;;8.10;99.90;;;;;;4990529;28;20110;-80
2022/02/15 07:22:20;;;;;;;24.07;11.67;;;8.10;99.90;;;;;;5017440;28;20116;-78
2022/02/15 07:25:08;;;;;;;19.00;10.73;;;8.10;99.90;;;;;;4994191;28;20057;-78
2022/02/15 07:27:44;;;;;;;20.53;11.03;;;8.10;99.90;;;;;;5010957;28;20044;-79
2022/02/15 07:30:13;;;;;;;22.58;11.73;;;8.20;99.90;;;;;;5011934;28;20031;-80
2022/02/15 07:33:01;;;;;;;25.03;11.80;;;8.10;99.90;;;;;;5011316;28;20042;-80
2022/02/15 07:35:29;;;;;;;26.10;12.87;;;8.20;99.90;;;;;;5011527;28;20124;-80
2022/02/15 07:37:54;;;;;;;22.10;11.80;;;8.10;99.90;;;;;;5028848;28;20143;-80
2022/02/15 07:40:21;;;;;;;22.07;11.97;;;8.10;99.90;;;;;;5029205;28;20105;-80
2022/02/15 07:42:49;;;;;;;20.57;11.90;;;8.20;99.90;;;;;;5028399;28;20077;-80
2022/02/15 07:45:19;;;;;;;21.53;11.30;;;8.20;99.90;;;;;;5010834;28;20087;-80
2022/02/15 07:47:49;;;;;;;19.93;10.80;;;8.10;99.90;;;;;;5029145;28;20038;-83
2022/02/15 07:50:17;;;;;;;17.50;10.23;;;8.10;99.90;;;;;;5011888;28;20104;-81
2022/02/15 07:52:44;;;;;;;21.97;10.53;;;8.10;99.90;;;;;;5029022;28;20033;-83
2022/02/15 07:55:12;;;;;;;16.80;10.50;;;8.00;99.90;;;;;;5011733;28;20044;-86
2022/02/15 07:57:38;;;;;;;20.67;10.13;;;8.10;99.90;;;;;;5011340;28;20060;-84
2022/02/15 08:00:05;;;;;;;26.23;11.73;;;8.20;99.90;;;;;;5029038;28;20478;-83
2022/02/15 08:02:38;;;;;;;21.23;12.03;;;8.20;99.90;;;;;;5029585;28;20069;-85
2022/02/15 08:05:04;;;;;;;18.10;11.37;;;8.20;99.90;;;;;;5011668;28;20060;-83
2022/02/15 08:07:33;;;;;;;21.67;12.07;;;8.20;99.90;;;;;;5011253;28;20033;-80
2022/02/15 08:09:59;;;;;;;19.98;12.18;;;8.20;99.90;;;;;;5028932;28;20385;-81
2022/02/15 08:12:25;;;;;;;23.90;11.83;;;8.30;99.90;;;;;;5028689;28;20068;-80
2022/02/15 08:14:51;;;;;;;26.30;12.30;;;8.20;99.90;;;;;;5028385;28;20642;-79
2022/02/15 08:17:17;;;;;;;24.23;13.07;;;8.30;99.90;;;;;;5031001;28;20051;-79
2022/02/15 08:19:43;;;;;;;19.63;12.07;;;8.30;99.90;;;;;;5033171;28;20036;-79
2022/02/15 08:22:08;;;;;;;28.33;14.00;;;8.30;99.90;;;;;;5032882;28;20105;-79
2022/02/15 08:24:36;;;;;;;28.73;13.53;;;8.30;99.90;;;;;;5032930;28;20048;-79
2022/02/15 08:27:02;;;;;;;21.53;13.13;;;8.30;99.90;;;;;;5032814;28;20037;-86
2022/02/15 08:29:28;;;;;;;27.03;14.20;;;8.40;99.90;;;;;;5032588;28;20036;-85
2022/02/15 08:31:55;;;;;;;23.67;13.10;;;8.50;99.90;;;;;;5032997;28;20519;-91
2022/02/15 08:34:23;;;;;;;24.30;13.87;;;8.60;99.90;;;;;;5032731;28;20036;-88
2022/02/15 08:36:49;;;;;;;20.83;13.23;;;8.70;99.90;;;;;;5026680;22;20069;-71
2022/02/15 08:39:15;;;;;;;22.10;11.53;;;8.70;99.90;;;;;;5012663;28;20494;-70
2022/02/15 08:41:42;;;;;;;23.63;13.60;;;8.60;99.90;;;;;;4995119;28;20030;-68
2022/02/15 08:44:09;;;;;;;27.90;14.97;;;8.60;99.90;;;;;;5012301;28;20030;-70
2022/02/15 08:46:35;;;;;;;25.17;12.63;;;8.60;99.90;;;;;;4994868;28;20391;-68
2022/02/15 08:49:02;;;;;;;20.90;11.33;;;8.50;99.90;;;;;;5012500;28;20041;-68
2022/02/15 08:51:28;;;;;;;25.73;13.00;;;8.50;99.90;;;;;;5012656;28;20041;-68
2022/02/15 08:53:54;;;;;;;22.27;11.83;;;8.40;99.90;;;;;;4994352;28;20141;-68
2022/02/15 08:56:21;;;;;;;23.97;12.70;;;8.50;99.90;;;;;;5012094;28;20042;-69
2022/02/15 08:58:48;;;;;;;19.53;11.73;;;8.40;99.90;;;;;;5011713;28;20091;-69
2022/02/15 09:01:14;;;;;;;20.60;11.63;;;8.40;99.90;;;;;;5012387;28;20471;-68
2022/02/15 09:03:41;;;;;;;21.67;12.10;;;8.40;99.90;;;;;;4994290;28;20121;-68
2022/02/15 09:06:07;;;;;;;23.90;12.40;;;8.30;99.90;;;;;;5012186;28;20038;-68
2022/02/15 09:08:33;;;;;;;22.87;12.17;;;8.30;99.90;;;;;;5012077;28;20030;-69
2022/02/15 09:10:59;;;;;;;19.07;11.00;;;8.30;99.90;;;;;;5012001;28;20022;-69
2022/02/15 09:13:25;;;;;;;21.23;11.80;;;8.20;99.90;;;;;;5011611;28;20025;-68
2022/02/15 09:15:51;;;;;;;23.57;12.13;;;8.20;99.90;;;;;;5012109;28;20034;-70
2022/02/15 09:18:17;;;;;;;18.97;10.17;;;8.20;99.90;;;;;;5011310;28;20574;-68
2022/02/15 09:20:43;;;;;;;19.80;11.67;;;8.30;99.90;;;;;;5011820;28;20372;-66
2022/02/15 09:23:09;;;;;;;18.50;11.90;;;8.30;99.90;;;;;;5012078;28;20347;-66
2022/02/15 09:25:36;;;;;;;22.70;10.80;;;8.30;99.90;;;;;;5012475;28;20030;-65
2022/02/15 09:28:03;;;;;;;18.97;10.27;;;8.30;99.90;;;;;;5010753;28;20140;-66
2022/02/15 09:30:29;;;;;;;18.93;10.40;;;8.30;99.90;;;;;;5012538;28;20080;-67
2022/02/15 09:32:56;;;;;;;18.27;11.43;;;8.30;99.90;;;;;;5011960;28;20034;-65
2022/02/15 09:35:22;;;;;;;16.60;9.53;;;8.40;99.90;;;;;;5011884;28;20034;-68
2022/02/15 09:37:48;;;;;;;17.87;9.90;;;8.30;99.90;;;;;;5011414;28;20483;-68
2022/02/15 09:40:14;;;;;;;16.97;9.10;;;8.40;99.90;;;;;;5011915;28;20036;-71
2022/02/15 09:42:49;;;;;;;15.93;8.73;;;8.40;99.90;;;;;;4993503;28;20053;-71
2022/02/15 09:45:15;;;;;;;14.23;8.97;;;8.40;99.90;;;;;;5011813;28;20030;-72
2022/02/15 09:47:44;;;;;;;17.80;8.93;;;8.40;99.90;;;;;;5011421;28;20030;-71
2022/02/15 09:50:11;;;;;;;16.15;8.75;;;8.50;99.90;;;;;;5012279;28;20033;-71
2022/02/15 09:52:37;;;;;;;19.20;9.03;;;8.50;99.90;;;;;;5014549;28;20048;-69
2022/02/15 09:55:04;;;;;;;16.47;9.23;;;8.50;99.90;;;;;;5022010;28;20044;-66
2022/02/15 09:57:30;;;;;;;17.57;9.43;;;8.50;99.90;;;;;;5031649;28;20037;-70
2022/02/15 09:59:57;;;;;;;23.47;11.23;;;8.50;99.90;;;;;;5031105;28;20493;-76
2022/02/15 10:02:29;;;;;;;16.27;9.70;;;8.60;99.90;;;;;;5013883;28;20033;-74
2022/02/15 10:04:57;;;;;;;19.67;9.73;;;8.70;99.90;;;;;;5014032;28;20053;-71
2022/02/15 10:07:26;;;;;;;15.13;9.50;;;8.70;99.90;;;;;;5031403;28;20548;-68
2022/02/15 10:09:55;;;;;;;19.70;9.45;;;8.70;99.90;;;;;;5031096;28;20155;-69
2022/02/15 10:12:24;;;;;;;16.55;9.13;;;8.60;99.90;;;;;;5030878;28;20045;-69
2022/02/15 10:14:54;;;;;;;15.60;8.53;;;8.70;99.90;;;;;;5012400;28;20063;-69
2022/02/15 10:17:23;;;;;;;14.17;8.03;;;8.60;99.90;;;;;;5031026;28;20029;-71
2022/02/15 10:19:50;;;;;;;13.07;8.17;;;8.60;99.90;;;;;;4995987;28;20030;-76
2022/02/15 10:22:18;;;;;;;14.07;8.93;;;8.60;99.90;;;;;;5010977;28;20026;-69
2022/02/15 10:24:53;;;;;;;17.73;9.23;;;8.50;99.90;;;;;;4993277;28;20026;-68
2022/02/15 10:27:28;;;;;;;16.83;8.63;;;8.50;99.90;;;;;;5011669;28;20511;-69
2022/02/15 10:29:55;;;;;;;17.63;9.00;;;8.50;99.90;;;;;;5010732;28;20075;-71
2022/02/15 10:32:22;;;;;;;15.10;8.87;;;8.40;99.90;;;;;;5011386;28;20045;-70
2022/02/15 10:34:58;;;;;;;18.40;9.23;;;8.40;99.90;;;;;;5010902;28;20407;-69
2022/02/15 10:37:28;;;;;;;20.27;8.27;;;8.40;99.90;;;;;;5010535;28;20026;-71
2022/02/15 10:39:57;;;;;;;15.90;8.40;;;8.40;99.90;;;;;;5009432;28;20479;-70
2022/02/15 10:42:28;;;;;;;15.88;8.90;;;8.40;99.90;;;;;;5010828;28;20030;-70
2022/02/15 10:45:00;;;;;;;17.57;9.00;;;8.50;99.90;;;;;;5010281;28;20141;-70
2022/02/15 10:47:38;;;;;;;16.40;9.00;;;8.50;99.90;;;;;;5010870;28;20415;-70
2022/02/15 10:50:10;;;;;;;16.13;8.60;;;8.60;99.90;;;;;;5010789;28;20032;-70
2022/02/15 10:52:36;;;;;;;20.67;10.40;;;8.70;99.90;;;;;;5010602;28;20566;-70
2022/02/15 10:55:03;;;;;;;18.90;8.07;;;8.80;99.90;;;;;;4992442;28;20121;-70
2022/02/15 10:57:29;;;;;;;15.87;8.27;;;8.70;99.90;;;;;;5010697;28;20477;-70
2022/02/15 10:59:57;;;;;;;16.67;7.07;;;8.70;99.90;;;;;;5010310;28;20451;-70
2022/02/15 11:02:28;;;;;;;19.33;8.10;;;8.70;99.90;;;;;;5010513;28;20410;-71
2022/02/15 11:04:55;;;;;;;13.43;7.23;;;8.70;99.90;;;;;;5010253;28;20113;-70
2022/02/15 11:07:33;;;;;;;14.13;5.93;;;8.70;99.90;;;;;;5010481;28;20109;-70
2022/02/15 11:10:40;;;;;;;13.90;5.37;;;8.80;99.90;;;;;;5010532;28;20048;-70
2022/02/15 11:13:06;;;;;;;10.63;4.80;;;8.80;99.90;;;;;;4992060;28;20046;-70
2022/02/15 11:15:34;;;;;;;11.03;5.10;;;8.80;99.90;;;;;;5010273;28;20060;-70
2022/02/15 11:18:01;;;;;;;17.13;5.90;;;8.70;99.90;;;;;;5009846;28;20041;-70
2022/02/15 11:20:50;;;;;;;11.90;6.07;;;8.70;99.90;;;;;;5010253;28;20056;-70
2022/02/15 11:23:17;;;;;;;12.30;6.23;;;8.70;99.90;;;;;;5009891;28;20479;-70
2022/02/15 11:25:44;;;;;;;11.20;5.33;;;8.70;99.90;;;;;;5010077;28;20034;-69
2022/02/15 11:28:14;;;;;;;11.27;5.70;;;8.70;99.90;;;;;;5009428;28;20026;-70
2022/02/15 11:30:46;;;;;;;11.03;5.93;;;8.70;99.90;;;;;;5010068;28;20033;-71
2022/02/15 11:33:21;;;;;;;13.63;5.53;;;8.70;99.90;;;;;;4991936;28;20068;-70
2022/02/15 11:35:51;;;;;;;12.60;5.40;;;8.70;99.90;;;;;;5009993;28;20034;-70
2022/02/15 11:38:17;;;;;;;10.90;4.23;;;8.70;99.90;;;;;;5009785;28;20064;-69
2022/02/15 11:40:43;;;;;;;10.60;3.87;;;8.70;99.90;;;;;;5009963;28;20030;-70
2022/02/15 11:43:16;;;;;;;10.23;3.80;;;8.80;99.90;;;;;;4991877;28;20547;-70
2022/02/15 11:45:42;;;;;;;8.93;3.33;;;8.80;99.90;;;;;;5010049;28;20037;-71
2022/02/15 11:48:09;;;;;;;9.47;3.60;;;8.90;99.90;;;;;;5009588;28;20030;-71
2022/02/15 11:50:47;;;;;;;7.23;3.07;;;8.90;99.90;;;;;;5009751;28;20445;-70
2022/02/15 11:53:16;;;;;;;8.53;2.97;;;9.00;99.90;;;;;;5009168;28;20057;-70
2022/02/15 11:55:44;;;;;;;8.25;2.90;;;9.00;99.90;;;;;;5010174;28;20137;-70
2022/02/15 11:58:10;;;;;;;5.47;2.90;;;9.10;99.90;;;;;;5009176;28;20037;-71
2022/02/15 12:00:38;;;;;;;7.53;2.70;;;9.10;99.90;;;;;;5009874;28;20069;-71
2022/02/15 12:03:05;;;;;;;6.78;2.20;;;9.20;99.90;;;;;;4991791;28;20084;-69
2022/02/15 12:05:36;;;;;;;8.17;1.97;;;9.20;99.90;;;;;;5009611;28;20153;-68
2022/02/15 12:08:02;;;;;;;7.77;2.50;;;9.30;99.90;;;;;;5009441;28;20084;-69
2022/02/15 12:10:36;;;;;;;6.03;2.27;;;9.30;99.90;;;;;;5009706;28;20030;-69
2022/02/15 12:13:03;;;;;;;8.27;2.40;;;9.20;99.90;;;;;;5008915;28;20481;-69
2022/02/15 12:15:34;;;;;;;9.07;2.63;;;9.20;99.90;;;;;;5009772;28;20046;-69
2022/02/15 12:18:00;;;;;;;7.97;2.60;;;9.30;99.90;;;;;;4991482;28;20081;-69
2022/02/15 12:20:27;;;;;;;5.43;1.83;;;9.30;99.90;;;;;;5009397;28;20076;-69
2022/02/15 12:22:54;;;;;;;6.23;1.80;;;9.30;99.90;;;;;;5009299;28;20033;-69
2022/02/15 12:25:47;;;;;;;7.83;1.60;;;9.40;99.90;;;;;;5006994;28;20041;-69
2022/02/15 12:28:19;;;;;;;8.47;1.83;;;9.30;99.90;;;;;;5012161;23;20486;-75
2022/02/15 12:30:45;;;;;;;5.37;1.67;;;9.40;99.90;;;;;;4990261;28;20026;-76
2022/02/15 12:33:11;;;;;;;4.30;1.37;;;9.40;99.90;;;;;;4989333;28;20487;-77
2022/02/15 12:35:37;;;;;;;6.03;1.50;;;9.40;99.90;;;;;;4989771;28;20110;-76
2022/02/15 12:38:05;;;;;;;3.97;1.27;;;9.40;99.90;;;;;;4971833;28;20125;-75
2022/02/15 12:40:31;;;;;;;4.37;1.60;;;9.40;99.90;;;;;;4972405;28;20466;-75
2022/02/15 12:42:57;;;;;;;4.67;1.70;;;9.40;99.90;;;;;;4989035;28;20058;-75
2022/02/15 12:45:24;;;;;;;6.70;1.30;;;9.40;99.80;;;;;;4989888;28;20188;-76
2022/02/15 12:47:50;;;;;;;5.20;1.43;;;9.40;99.60;;;;;;4971682;28;20038;-76
2022/02/15 12:50:17;;;;;;;5.47;1.60;;;9.40;99.20;;;;;;4989348;28;20023;-76
2022/02/15 12:52:44;;;;;;;6.43;2.00;;;9.30;99.20;;;;;;4989426;28;20066;-77
2022/02/15 12:55:13;;;;;;;6.83;2.43;;;9.30;99.50;;;;;;4989439;28;20046;-75
2022/02/15 12:57:42;;;;;;;;;;;9.40;99.40;;;;;;4989703;28;20431;-76
2022/02/15 13:00:12;;;;;;;4.60;1.60;;;9.40;99.20;;;;;;4989806;28;19909;-76
2022/02/15 13:02:41;;;;;;;5.70;1.73;;;9.50;99.30;;;;;;4990044;28;20037;-75